Time;durP1;ratioP1;P1;durP2;ratioP2;P2;SDS_P1;SDS_P2;PMS_P1;PMS_P2;Temp;Humidity;BMP_temperature;BMP_pressure;BME280_temperature;BME280_humidity;BME280_pressure;Samples;Min_cycle;Max_cycle;Signal;HPM_P1;HPM_P2
2021/12/12 00:01:06;;;;;;;;;5.25;4.00;;;;;21.63;34.61;102005.81;5031740;28;45330;-73
2021/12/12 00:03:40;;;;;;;;;7.25;5.50;;;;;21.64;34.84;102006.66;5031723;28;45443;-73
2021/12/12 00:06:17;;;;;;;;;5.25;5.25;;;;;21.61;34.91;101999.84;5031789;28;46341;-73
2021/12/12 00:08:46;;;;;;;;;4.50;4.00;;;;;21.62;34.68;101998.84;5013269;28;45315;-73
2021/12/12 00:11:16;;;;;;;;;2.25;2.00;;;;;21.56;35.11;101980.06;5033140;28;45422;-73
2021/12/12 00:13:46;;;;;;;;;4.25;4.25;;;;;21.63;34.53;102000.50;5031581;28;45669;-73
2021/12/12 00:16:12;;;;;;;;;7.00;5.25;;;;;21.63;34.84;101997.03;5030421;27;45425;-73
2021/12/12 00:18:38;;;;;;;;;5.00;5.00;;;;;21.65;34.97;101989.75;5031550;28;45361;-73
2021/12/12 00:21:07;;;;;;;;;6.00;4.00;;;;;21.35;34.79;101949.41;5031716;27;45785;-73
2021/12/12 00:23:32;;;;;;;;;5.50;5.50;;;;;21.64;34.85;101993.41;5032051;28;45529;-73
2021/12/12 00:26:03;;;;;;;;;7.00;4.75;;;;;21.52;34.92;101963.63;5032934;28;47271;-73
2021/12/12 00:28:29;;;;;;;;;5.75;4.00;;;;;21.56;34.71;101970.31;5031591;28;45447;-73
2021/12/12 00:30:58;;;;;;;;;8.25;5.50;;;;;21.66;34.77;101978.19;5030009;28;45347;-73
2021/12/12 00:33:23;;;;;;;;;4.25;4.25;;;;;21.59;34.99;101970.03;5031625;28;45525;-73
2021/12/12 00:35:50;;;;;;;;;5.00;5.00;;;;;21.67;34.89;101979.03;5031393;28;45929;-73
2021/12/12 00:38:22;;;;;;;;;5.00;5.00;;;;;21.67;34.51;101974.56;5033327;27;45445;-73
2021/12/12 00:40:50;;;;;;;;;7.00;3.25;;;;;21.66;34.91;101978.19;5032059;27;45521;-73
2021/12/12 00:43:23;;;;;;;;;7.75;4.00;;;;;21.65;35.13;101973.88;5031198;28;45612;-73
2021/12/12 00:45:52;;;;;;;;;3.75;3.00;;;;;21.65;34.79;101971.22;5031133;28;47316;-73
2021/12/12 00:48:18;;;;;;;;;8.00;6.50;;;;;21.58;34.82;101967.50;5031456;27;45485;-73
2021/12/12 00:50:45;;;;;;;;;5.25;5.25;;;;;21.65;35.14;101970.41;5031059;28;45512;-73
2021/12/12 00:53:12;;;;;;;;;4.00;4.00;;;;;21.59;34.69;101963.88;5033091;28;45608;-73
2021/12/12 00:55:44;;;;;;;;;6.25;4.50;;;;;21.65;34.97;101975.72;5029742;27;46301;-73
2021/12/12 00:58:15;;;;;;;;;6.00;5.75;;;;;21.65;34.78;101973.06;5031058;27;45461;-73
2021/12/12 01:00:59;;;;;;;;;7.00;5.50;;;;;21.63;34.74;101968.72;5031315;28;45335;-73
2021/12/12 01:03:37;;;;;;;;;8.00;5.00;;;;;21.64;34.83;101980.16;5031035;28;45371;-73
2021/12/12 01:06:05;;;;;;;;;7.00;4.00;;;;;21.64;34.64;101985.47;5016693;28;46101;-73
2021/12/12 01:08:31;;;;;;;;;4.00;3.75;;;;;21.63;34.77;101979.31;5031967;28;45258;-73
2021/12/12 01:11:11;;;;;;;;;4.75;4.50;;;;;21.54;34.84;101964.34;5031108;27;45330;-73
2021/12/12 01:13:37;;;;;;;;;5.00;4.75;;;;;21.63;34.83;101983.78;5030820;28;45388;-73
2021/12/12 01:16:17;;;;;;;;;4.00;4.00;;;;;21.63;35.00;101981.13;5030883;27;46301;-73
2021/12/12 01:18:46;;;;;;;;;5.00;4.00;;;;;21.61;34.84;101977.81;5030801;27;45484;-73
2021/12/12 01:21:26;;;;;;;;;7.00;5.00;;;;;21.63;34.78;101989.06;5030437;27;45394;-73
2021/12/12 01:23:59;;;;;;;;;4.75;4.00;;;;;21.49;35.20;101967.41;5015355;27;45229;-73
2021/12/12 01:26:27;;;;;;;;;5.75;4.00;;;;;21.61;34.68;101986.59;5029037;27;46180;-74
2021/12/12 01:28:54;;;;;;;;;5.25;4.00;;;;;21.61;35.03;101988.41;5030449;28;45378;-73
2021/12/12 01:31:25;;;;;;;;;5.25;4.00;;;;;21.33;34.93;101935.50;5030836;27;45338;-73
2021/12/12 01:33:59;;;;;;;;;5.50;5.00;;;;;21.60;34.95;101990.22;5029552;28;45571;-73
2021/12/12 01:36:44;;;;;;;;;3.25;3.25;;;;;21.51;34.84;101970.78;5028839;28;47250;-74
2021/12/12 01:39:12;;;;;;;;;5.00;5.00;;;;;21.57;34.88;101989.69;5030640;28;45436;-73
2021/12/12 01:41:58;;;;;;;;;9.75;4.50;;;;;21.61;35.24;101993.69;5030683;28;45432;-73
2021/12/12 01:44:42;;;;;;;;;2.50;2.50;;;;;21.61;35.17;101999.00;5028758;28;45361;-73
2021/12/12 01:47:12;;;;;;;;;3.25;3.25;;;;;21.60;34.81;101997.31;5031220;28;46182;-73
2021/12/12 01:49:42;;;;;;;;;3.50;3.50;;;;;21.60;34.63;101997.31;5028617;27;45527;-73
2021/12/12 01:52:11;;;;;;;;;3.75;3.75;;;;;21.60;34.87;101997.31;5030548;27;45500;-73
2021/12/12 01:54:44;;;;;;;;;5.25;5.00;;;;;21.55;34.93;101987.19;5030343;28;45453;-73
2021/12/12 01:57:18;;;;;;;;;4.25;4.00;;;;;21.60;35.12;101999.97;5030314;28;46649;-73
2021/12/12 01:59:46;;;;;;;;;4.50;3.75;;;;;21.60;35.31;102011.41;5030424;27;45941;-73
2021/12/12 02:02:19;;;;;;;;;4.00;4.00;;;;;21.54;34.83;102005.88;5032341;27;45386;-73
2021/12/12 02:04:49;;;;;;;;;4.00;4.00;;;;;21.61;34.87;102015.72;5030173;28;45410;-73
2021/12/12 02:07:18;;;;;;;;;4.75;4.00;;;;;21.62;35.13;102014.72;5033187;28;45509;-73
2021/12/12 02:09:44;;;;;;;;;3.00;3.00;;;;;21.63;34.97;102020.88;5033105;27;45474;-73
2021/12/12 02:12:11;;;;;;;;;5.00;5.00;;;;;21.65;35.17;102023.38;5032308;27;45353;-73
2021/12/12 02:14:40;;;;;;;;;4.50;3.75;;;;;21.63;35.05;102019.06;5033243;28;45406;-73
2021/12/12 02:17:19;;;;;;;;;5.50;5.25;;;;;21.63;34.99;102020.88;5035135;28;47161;-73
2021/12/12 02:20:05;;;;;;;;;3.75;3.00;;;;;21.64;34.70;102019.88;5032597;28;45625;-73
2021/12/12 02:36:05;;;;;;;;;5.00;3.25;;;;;21.54;34.74;102019.13;5018949;28;45465;-73
2021/12/12 02:38:33;;;;;;;;;3.25;3.25;;;;;21.53;34.92;102012.97;5033625;28;46352;-73
2021/12/12 02:41:06;;;;;;;;;3.25;3.25;;;;;21.61;35.15;102028.97;5034532;28;45485;-73
2021/12/12 02:43:39;;;;;;;;;5.00;3.00;;;;;21.61;35.37;102038.72;5032931;27;45421;-73
2021/12/12 02:46:06;;;;;;;;;2.75;2.75;;;;;21.60;34.92;102029.94;5015094;28;45311;-73
2021/12/12 02:48:39;;;;;;;;;3.25;3.00;;;;;21.59;35.14;102030.94;5032249;28;46103;-73
2021/12/12 02:51:09;;;;;;;;;4.75;3.00;;;;;21.51;35.31;102009.66;5031727;27;45443;-73
2021/12/12 02:53:56;;;;;;;;;6.75;5.00;;;;;21.61;35.10;102025.47;5033059;28;45409;-73
2021/12/12 02:56:25;;;;;;;;;6.25;3.25;;;;;21.60;35.16;102034.41;5030862;28;45279;-74
2021/12/12 02:58:51;;;;;;;;;4.25;3.25;;;;;21.59;35.46;102028.28;5033014;28;45585;-73
2021/12/12 03:01:37;;;;;;;;;2.50;2.50;;;;;21.59;35.29;102027.44;5032129;27;45328;-73
2021/12/12 03:04:03;;;;;;;;;3.00;3.00;;;;;21.51;35.05;102014.94;5032524;27;45340;-73
2021/12/12 03:06:32;;;;;;;;;3.00;3.00;;;;;21.59;35.11;102036.22;5031244;27;45584;-73
2021/12/12 03:09:06;;;;;;;;;4.50;4.00;;;;;21.59;35.21;102038.88;5033801;27;45732;-73
2021/12/12 03:11:32;;;;;;;;;3.75;3.75;;;;;21.60;35.41;102045.00;5033173;28;47434;-73
2021/12/12 03:13:58;;;;;;;;;5.50;2.50;;;;;21.59;35.18;102041.53;5033991;28;45488;-73
2021/12/12 03:16:24;;;;;;;;;3.75;3.75;;;;;21.59;35.32;102046.81;5010857;28;45563;-73
2021/12/12 03:18:50;;;;;;;;;3.25;3.25;;;;;21.59;35.41;102046.81;5024593;28;45449;-73
2021/12/12 03:21:33;;;;;;;;;5.50;2.75;;;;;21.56;35.28;102039.16;5032213;27;45578;-73
2021/12/12 03:24:13;;;;;;;;;5.25;4.50;;;;;21.56;35.34;102041.81;5018077;27;45367;-73
2021/12/12 03:26:42;;;;;;;;;3.75;2.75;;;;;21.59;35.21;102044.19;5032477;28;45243;-73
2021/12/12 03:29:08;;;;;;;;;3.00;3.00;;;;;21.49;35.00;102030.16;5034200;28;46397;-73
2021/12/12 03:31:38;;;;;;;;;4.50;2.75;;;;;21.59;35.25;102046.81;5030602;27;45264;-73
2021/12/12 03:34:10;;;;;;;;;2.75;2.00;;;;;21.58;35.37;102045.16;5032242;28;45473;-73
2021/12/12 03:36:36;;;;;;;;;4.25;4.00;;;;;21.60;35.16;102045.81;5030943;27;45367;-73
2021/12/12 03:39:08;;;;;;;;;4.50;4.50;;;;;21.61;35.09;102046.66;5032211;28;45524;-73
2021/12/12 03:41:36;;;;;;;;;3.50;3.50;;;;;21.61;35.32;102044.03;5032656;27;45521;-74
2021/12/12 03:44:05;;;;;;;;;3.50;3.50;;;;;21.54;35.19;102029.72;5029643;28;45386;-73
2021/12/12 03:46:31;;;;;;;;;2.75;2.75;;;;;21.55;35.48;102042.78;5029742;28;45442;-73
2021/12/12 03:48:57;;;;;;;;;3.75;3.75;;;;;21.56;35.36;102038.34;5033031;27;46464;-73
2021/12/12 03:51:25;;;;;;;;;3.25;3.25;;;;;21.62;34.99;102049.16;5032385;27;45398;-73
2021/12/12 03:53:52;;;;;;;;;4.00;4.00;;;;;21.48;35.10;102021.38;5015248;28;45347;-73
2021/12/12 03:56:17;;;;;;;;;2.00;2.00;;;;;21.62;35.60;102043.06;5029846;28;45378;-73
2021/12/12 03:58:45;;;;;;;;;3.00;3.00;;;;;21.62;34.78;102043.84;5031949;28;46738;-73
2021/12/12 04:01:30;;;;;;;;;3.25;3.25;;;;;21.62;35.16;102049.16;5031487;28;45303;-73
2021/12/12 04:03:59;;;;;;;;;3.00;3.00;;;;;21.62;35.63;102058.94;5031864;28;45440;-73
2021/12/12 04:06:29;;;;;;;;;5.25;3.00;;;;;21.62;35.20;102051.00;5031661;28;45545;-73
2021/12/12 04:08:56;;;;;;;;;4.75;3.25;;;;;21.63;35.20;102057.94;5014015;28;46253;-73
2021/12/12 04:11:36;;;;;;;;;2.50;2.50;;;;;21.63;35.24;102065.88;5034074;28;45384;-74
2021/12/12 04:14:03;;;;;;;;;5.50;5.00;;;;;21.62;35.38;102065.03;5031525;28;45399;-73
2021/12/12 04:16:32;;;;;;;;;3.00;3.00;;;;;21.63;35.35;102064.06;5031693;28;45472;-73
2021/12/12 04:18:58;;;;;;;;;3.00;3.00;;;;;21.61;35.08;102060.75;5031539;28;45353;-73
2021/12/12 04:21:26;;;;;;;;;3.25;3.25;;;;;21.62;35.58;102065.03;5031280;28;45482;-73
2021/12/12 04:23:52;;;;;;;;;0.00;0.00;;;;;21.54;35.18;102042.94;5016295;28;45520;-73
2021/12/12 04:26:28;;;;;;;;;2.75;2.50;;;;;21.59;35.33;102070.66;5029422;28;45368;-73
2021/12/12 04:29:14;;;;;;;;;3.50;3.50;;;;;21.61;35.18;102060.75;5029083;28;46307;-73
2021/12/12 04:31:44;;;;;;;;;4.25;3.25;;;;;21.59;35.03;102057.41;5031385;28;45494;-73
2021/12/12 04:34:10;;;;;;;;;3.75;3.75;;;;;21.61;35.23;102060.75;5031599;28;45426;-73
2021/12/12 04:36:42;;;;;;;;;5.00;4.50;;;;;21.60;35.23;102069.66;5031447;27;45511;-73
2021/12/12 04:39:15;;;;;;;;;3.00;3.00;;;;;21.60;35.38;102063.53;5031505;28;46368;-73
2021/12/12 04:41:42;;;;;;;;;4.00;3.00;;;;;21.61;35.07;102070.50;5031307;28;45327;-73
2021/12/12 04:44:09;;;;;;;;;2.00;2.00;;;;;21.60;35.34;102074.97;5033172;27;45382;-74
2021/12/12 04:52:20;;;;;;;;;4.50;4.00;;;;;21.60;35.25;102079.41;5031107;28;45490;-74
2021/12/12 04:54:53;;;;;;;;;3.25;2.00;;;;;21.60;35.41;102076.78;5031295;28;45449;-73
2021/12/12 04:57:50;;;;;;;;;4.00;4.00;;;;;21.59;35.35;102075.97;5031010;28;45379;-73
2021/12/12 05:00:23;;;;;;;;;4.00;3.75;;;;;21.54;35.61;102066.78;5018765;28;47689;-73
2021/12/12 05:03:01;;;;;;;;;3.75;3.00;;;;;21.59;35.37;102077.78;5030253;28;45457;-73
2021/12/12 05:05:29;;;;;;;;;3.00;3.00;;;;;21.29;35.16;102036.38;5029592;28;45293;-73
2021/12/12 05:08:18;;;;;;;;;2.00;2.00;;;;;21.50;35.09;102074.16;5033249;27;45471;-73
2021/12/12 05:10:54;;;;;;;;;4.00;3.00;;;;;21.59;35.57;102085.72;5029275;28;46055;-73
2021/12/12 05:13:30;;;;;;;;;3.25;3.00;;;;;21.46;35.36;102060.41;5030549;27;45404;-74
2021/12/12 05:16:06;;;;;;;;;2.00;2.00;;;;;21.59;35.63;102083.06;5031116;27;45223;-73
2021/12/12 05:18:37;;;;;;;;;2.00;2.00;;;;;21.58;35.46;102084.88;5030972;28;45520;-73
2021/12/12 05:21:08;;;;;;;;;4.75;4.00;;;;;21.59;35.78;102091.00;5030530;27;46422;-73
2021/12/12 05:23:35;;;;;;;;;4.00;2.00;;;;;21.60;35.31;102093.50;5031429;28;45316;-73
2021/12/12 05:26:05;;;;;;;;;4.00;4.00;;;;;21.60;35.92;102105.91;5032994;28;45454;-73
2021/12/12 05:28:35;;;;;;;;;3.00;2.00;;;;;21.61;35.75;102102.28;5029760;28;45410;-73
2021/12/12 05:31:06;;;;;;;;;1.50;1.50;;;;;21.45;35.18;102071.13;5029209;27;47542;-73
2021/12/12 05:33:32;;;;;;;;;3.00;3.00;;;;;21.61;35.17;102105.78;5029789;27;45430;-73
2021/12/12 05:35:59;;;;;;;;;3.00;3.00;;;;;21.61;35.20;102102.28;5031047;27;45466;-73
2021/12/12 05:38:26;;;;;;;;;1.75;1.75;;;;;21.61;35.58;102111.06;5032160;28;45379;-73
2021/12/12 05:40:52;;;;;;;;;3.50;3.50;;;;;21.61;35.32;102105.78;5028353;28;47592;-73
2021/12/12 05:43:19;;;;;;;;;3.00;3.00;;;;;21.61;35.47;102112.88;5029151;27;45399;-73
2021/12/12 05:45:47;;;;;;;;;3.00;3.00;;;;;21.60;35.24;102119.97;5030581;28;45412;-73
2021/12/12 05:48:14;;;;;;;;;3.00;3.00;;;;;21.51;35.29;102103.19;5030730;27;45497;-73
2021/12/12 05:50:40;;;;;;;;;2.25;2.25;;;;;21.62;35.66;102130.44;5030599;27;46816;-73
2021/12/12 05:53:07;;;;;;;;;3.00;3.00;;;;;21.61;35.40;102124.31;5032502;27;45477;-73
2021/12/12 05:55:35;;;;;;;;;4.00;2.75;;;;;21.61;35.69;102123.47;5012588;27;45399;-73
2021/12/12 05:58:10;;;;;;;;;2.25;2.25;;;;;21.59;35.40;102123.63;5031795;27;45307;-73
2021/12/12 06:00:39;;;;;;;;;2.00;2.00;;;;;21.60;35.83;102127.94;5030168;27;45358;-73
2021/12/12 06:03:07;;;;;;;;;3.00;3.00;;;;;21.60;35.21;102130.56;5030297;28;45502;-73
2021/12/12 06:05:33;;;;;;;;;3.00;3.00;;;;;21.61;35.38;102134.06;5031472;28;45434;-73
2021/12/12 06:07:59;;;;;;;;;3.00;2.00;;;;;21.59;35.52;102131.56;5030178;27;45316;-73
2021/12/12 06:10:25;;;;;;;;;3.00;3.00;;;;;21.60;35.62;102130.56;5029670;28;45644;-72
2021/12/12 06:12:52;;;;;;;;;2.00;2.00;;;;;21.59;35.53;102138.69;5030168;28;45721;-73
2021/12/12 06:15:19;;;;;;;;;2.75;2.00;;;;;21.50;35.46;102119.19;5030522;27;45549;-73
2021/12/12 06:17:49;;;;;;;;;1.00;1.00;;;;;21.47;35.77;102122.97;5030151;28;45574;-73
2021/12/12 06:20:16;;;;;;;;;3.00;3.00;;;;;21.58;35.59;102137.84;5031954;28;45342;-73
2021/12/12 06:22:42;;;;;;;;;2.00;2.00;;;;;21.57;35.97;102141.47;5028436;28;45479;-73
2021/12/12 06:25:09;;;;;;;;;2.75;2.75;;;;;21.59;35.46;102147.47;5029657;28;45477;-73
2021/12/12 06:27:35;;;;;;;;;2.75;2.75;;;;;21.59;35.30;102154.56;5030000;27;45580;-73
2021/12/12 06:30:06;;;;;;;;;1.00;1.00;;;;;21.55;35.83;102143.41;5030001;27;45535;-73
2021/12/12 06:32:32;;;;;;;;;2.00;2.00;;;;;21.58;35.76;102156.38;5030573;28;45380;-73
2021/12/12 06:34:58;;;;;;;;;2.00;2.00;;;;;21.58;35.87;102151.09;5031345;28;45284;-74
2021/12/12 06:37:25;;;;;;;;;3.50;2.75;;;;;21.50;35.56;102145.66;5029921;28;45444;-73
2021/12/12 06:39:52;;;;;;;;;4.50;4.00;;;;;21.59;35.60;102159.88;5029232;28;46154;-73
2021/12/12 06:42:19;;;;;;;;;3.50;2.50;;;;;21.60;35.52;102166.81;5029565;27;45584;-73
2021/12/12 06:44:45;;;;;;;;;7.00;3.00;;;;;21.60;35.29;102172.94;5029893;28;45528;-73
2021/12/12 06:47:14;;;;;;;;;1.25;1.25;;;;;21.59;35.93;102165.16;5030813;28;45334;-73
2021/12/12 06:49:40;;;;;;;;;2.00;2.00;;;;;21.58;35.46;102164.31;5029461;28;45383;-73
2021/12/12 06:52:09;;;;;;;;;1.00;1.00;;;;;21.28;35.54;102123.88;5031292;28;45396;-73
2021/12/12 06:54:35;;;;;;;;;4.00;2.75;;;;;21.56;35.57;102161.00;5032500;28;45322;-73
2021/12/12 06:57:05;;;;;;;;;2.75;2.00;;;;;21.59;35.43;102165.16;5032961;28;45462;-73
2021/12/12 06:59:34;;;;;;;;;2.75;2.75;;;;;21.59;35.67;102176.59;5033538;28;45603;-73
2021/12/12 07:02:00;;;;;;;;;2.00;2.00;;;;;21.59;35.55;102173.94;5032270;28;45429;-73
2021/12/12 07:04:28;;;;;;;;;4.00;4.00;;;;;21.59;35.78;102173.94;5033646;27;45399;-73
2021/12/12 07:06:59;;;;;;;;;4.00;2.00;;;;;21.60;35.95;102180.06;5032633;28;45512;-73
2021/12/12 07:09:27;;;;;;;;;1.00;1.00;;;;;21.58;36.17;102174.91;5032120;27;46458;-73
2021/12/12 07:11:53;;;;;;;;;2.00;2.00;;;;;21.61;35.67;102176.44;5015581;28;45233;-73
2021/12/12 07:14:19;;;;;;;;;2.50;2.00;;;;;21.48;36.08;102160.88;5030584;27;45436;-73
2021/12/12 07:16:45;;;;;;;;;2.75;2.00;;;;;21.55;35.99;102172.56;5032628;28;45357;-73
2021/12/12 07:19:12;;;;;;;;;1.75;1.75;;;;;21.53;35.96;102174.50;5014495;28;46544;-73
2021/12/12 07:21:38;;;;;;;;;2.00;2.00;;;;;21.61;35.60;102189.69;5032024;27;45434;-73
2021/12/12 07:24:05;;;;;;;;;3.00;3.00;;;;;21.46;35.83;102165.47;5031061;27;45501;-73
2021/12/12 07:26:30;;;;;;;;;4.00;4.00;;;;;21.62;36.17;102188.72;5033718;28;45834;-74
2021/12/12 07:28:58;;;;;;;;;4.00;1.25;;;;;21.63;35.94;102190.38;5033303;28;45979;-73
2021/12/12 07:31:27;;;;;;;;;2.50;2.50;;;;;21.59;35.68;102184.53;5032243;27;45436;-73
2021/12/12 07:33:56;;;;;;;;;3.25;3.00;;;;;21.61;35.84;102189.69;5032296;28;45312;-74
2021/12/12 07:36:23;;;;;;;;;3.25;2.50;;;;;21.61;35.38;102193.16;5032396;28;45377;-73
2021/12/12 07:38:56;;;;;;;;;6.00;2.25;;;;;21.61;35.64;102200.28;5031101;27;46367;-73
2021/12/12 07:41:25;;;;;;;;;2.75;2.75;;;;;21.54;35.67;102189.44;5030446;28;45393;-73
2021/12/12 07:43:51;;;;;;;;;2.00;2.00;;;;;21.61;35.88;102202.94;5031235;28;45370;-73
2021/12/12 07:46:19;;;;;;;;;2.00;2.00;;;;;21.49;35.53;102183.75;5032134;27;45397;-73
2021/12/12 07:48:47;;;;;;;;;2.00;2.00;;;;;21.61;36.17;102202.94;5032036;27;46242;-73
2021/12/12 07:51:13;;;;;;;;;4.50;4.50;;;;;21.60;35.54;102204.72;5031753;28;45241;-72
2021/12/12 07:53:39;;;;;;;;;2.50;2.50;;;;;21.59;36.04;102204.88;5032186;28;45561;-73
2021/12/12 07:56:05;;;;;;;;;2.00;2.00;;;;;21.60;35.88;102214.50;5034295;28;45419;-74
2021/12/12 07:58:31;;;;;;;;;1.00;1.00;;;;;21.59;36.03;102216.31;5031859;28;46299;-73
2021/12/12 08:00:59;;;;;;;;;2.00;2.00;;;;;21.60;35.96;102211.84;5031696;28;45453;-73
2021/12/12 08:03:32;;;;;;;;;2.00;2.00;;;;;21.59;35.92;102221.63;5029972;28;45378;-73
2021/12/12 08:06:02;;;;;;;;;2.00;2.00;;;;;21.50;35.85;102206.56;5015404;28;45501;-73
2021/12/12 08:08:29;;;;;;;;;3.00;1.25;;;;;21.59;35.88;102228.72;5033211;27;47145;-73
2021/12/12 08:10:57;;;;;;;;;2.25;1.25;;;;;21.53;36.17;102219.53;5032646;27;45369;-73
2021/12/12 08:13:22;;;;;;;;;2.75;2.25;;;;;21.54;36.25;102223.03;5031914;28;45524;-74
2021/12/12 08:15:49;;;;;;;;;1.75;1.25;;;;;21.60;35.94;102246.28;5031822;28;45448;-73
2021/12/12 08:18:16;;;;;;;;;1.25;1.25;;;;;21.59;35.91;102241.97;5030404;27;46386;-73
2021/12/12 08:20:45;;;;;;;;;2.00;2.00;;;;;21.59;36.23;102242.81;5031257;27;45806;-73
2021/12/12 08:23:13;;;;;;;;;2.00;2.00;;;;;21.50;35.79;102233.06;5033900;28;45535;-73
2021/12/12 08:25:38;;;;;;;;;2.00;2.00;;;;;21.55;35.94;102241.41;5013930;28;45509;-73
2021/12/12 08:28:05;;;;;;;;;2.00;2.00;;;;;21.61;36.06;102253.25;5031604;27;47377;-73
2021/12/12 08:30:34;;;;;;;;;1.50;1.50;;;;;21.47;36.39;102235.97;5031512;28;45460;-73
2021/12/12 08:33:00;;;;;;;;;2.00;2.00;;;;;21.57;35.57;102260.63;5031592;28;45402;-73
2021/12/12 08:35:27;;;;;;;;;3.00;3.00;;;;;21.61;35.99;102271.78;5032839;28;45375;-73
2021/12/12 08:37:54;;;;;;;;;3.00;1.50;;;;;21.61;36.33;102262.03;5030964;28;46113;-73
2021/12/12 08:40:24;;;;;;;;;1.00;1.00;;;;;21.62;35.90;102268.97;5031357;28;45423;-73
2021/12/12 08:42:51;;;;;;;;;2.00;2.00;;;;;21.62;36.13;102270.81;5030248;28;45437;-73
2021/12/12 08:45:20;;;;;;;;;2.50;2.50;;;;;21.55;36.12;102257.28;5031581;28;45446;-73
2021/12/12 08:47:48;;;;;;;;;2.00;2.00;;;;;21.56;35.80;102264.28;5031349;28;46323;-73
2021/12/12 08:50:20;;;;;;;;;1.75;1.75;;;;;21.60;35.85;102273.59;5033050;28;45577;-73
2021/12/12 08:52:48;;;;;;;;;3.25;2.00;;;;;21.64;36.04;102282.09;5031224;28;45475;-73
2021/12/12 08:55:21;;;;;;;;;2.00;2.00;;;;;21.57;36.07;102278.34;5029773;28;45701;-73
2021/12/12 08:57:58;;;;;;;;;3.00;3.00;;;;;21.54;35.86;102270.69;5029514;28;47162;-73
2021/12/12 09:00:27;;;;;;;;;1.00;1.00;;;;;21.47;35.60;102265.94;5031212;28;45478;-73
2021/12/12 09:02:54;;;;;;;;;2.00;2.00;;;;;21.63;36.37;102294.50;5015714;27;45442;-73
2021/12/12 09:05:28;;;;;;;;;2.00;2.00;;;;;21.48;35.78;102277.38;5028642;28;45284;-73
2021/12/12 09:08:02;;;;;;;;;2.00;2.00;;;;;21.61;35.55;102291.16;5030105;28;46374;-73
2021/12/12 09:10:37;;;;;;;;;3.00;1.75;;;;;21.63;36.10;102291.00;5030803;28;47149;-73
2021/12/12 09:13:10;;;;;;;;;2.00;2.00;;;;;21.64;35.90;102298.00;5030963;28;45369;-73
2021/12/12 09:15:41;;;;;;;;;2.75;2.00;;;;;21.64;35.88;102295.34;5030561;28;45493;-73
2021/12/12 09:18:17;;;;;;;;;3.00;1.75;;;;;21.63;35.82;102294.50;5030721;28;45311;-72
2021/12/12 09:20:50;;;;;;;;;4.00;1.00;;;;;21.63;35.77;102302.44;5031079;27;45477;-73
2021/12/12 09:23:35;;;;;;;;;1.25;1.25;;;;;21.63;35.90;102294.50;5032929;27;45240;-73
2021/12/12 09:26:12;;;;;;;;;2.00;2.00;;;;;21.50;35.83;102275.44;5033039;28;45170;-73
2021/12/12 09:28:43;;;;;;;;;2.75;2.00;;;;;21.62;35.78;102292.00;5030662;28;47167;-73
2021/12/12 09:31:13;;;;;;;;;1.00;1.00;;;;;21.64;36.38;102298.00;5030700;28;45545;-73
2021/12/12 09:33:44;;;;;;;;;1.00;1.00;;;;;21.64;35.76;102295.34;5030374;28;45549;-73
2021/12/12 09:36:17;;;;;;;;;2.00;2.00;;;;;21.64;35.96;102305.94;5029485;27;45345;-73
2021/12/12 09:38:48;;;;;;;;;2.00;2.00;;;;;21.63;35.93;102301.63;5030655;28;45674;-74
2021/12/12 09:41:33;;;;;;;;;3.00;3.00;;;;;21.63;36.08;102305.09;5032635;28;45399;-73
2021/12/12 09:44:41;;;;;;;;;2.00;2.00;;;;;21.64;35.85;102305.94;5032595;28;45432;-73
2021/12/12 09:47:32;;;;;;;;;2.75;2.00;;;;;21.64;36.24;102303.28;5091735;27;45400;-72
2021/12/12 09:53:03;;;;;;;;;3.50;2.00;;;;;21.63;35.93;102304.25;5089266;27;45402;-73
2021/12/12 09:55:42;;;;;;;;;2.00;2.00;;;;;21.63;36.53;102302.44;5084485;27;45544;-73
2021/12/12 09:58:31;;;;;;;;;2.00;1.00;;;;;21.63;36.03;102310.41;5081779;27;45419;-73
2021/12/12 10:01:03;;;;;;;;;1.50;1.50;;;;;21.63;35.98;102315.69;5081357;27;46670;-73
2021/12/12 10:04:05;;;;;;;;;2.50;2.00;;;;;21.63;36.35;102313.03;5081099;27;45410;-72
2021/12/12 10:06:41;;;;;;;;;2.00;2.00;;;;;21.63;36.07;102313.03;5081691;27;45462;-73
2021/12/12 10:09:13;;;;;;;;;2.75;1.75;;;;;21.64;36.08;102308.59;5079084;27;45563;-73
2021/12/12 10:11:56;;;;;;;;;1.00;1.00;;;;;21.63;36.20;102307.75;5076461;27;46917;-73
2021/12/12 10:14:34;;;;;;;;;1.25;1.25;;;;;21.57;36.40;102292.41;5094001;27;45387;-72
2021/12/12 10:17:26;;;;;;;;;1.00;1.00;;;;;21.63;36.73;102305.09;5088410;27;45431;-74
2021/12/12 10:20:00;;;;;;;;;1.75;1.75;;;;;21.58;35.95;102304.69;5081269;27;45396;-73
2021/12/12 10:22:40;;;;;;;;;1.25;1.25;;;;;21.65;35.84;102310.25;5081073;27;46145;-73
2021/12/12 10:25:12;;;;;;;;;2.00;2.00;;;;;21.54;36.18;102292.72;5012806;28;45390;-73
2021/12/12 10:27:50;;;;;;;;;1.75;1.75;;;;;21.65;36.30;102304.13;5012611;28;45984;-74
2021/12/12 10:30:30;;;;;;;;;3.50;1.25;;;;;21.59;36.11;102297.59;5013313;28;45551;-73
2021/12/12 10:33:10;;;;;;;;;3.75;2.75;;;;;21.66;36.41;102313.72;4997426;28;45385;-73
2021/12/12 10:35:58;;;;;;;;;1.75;1.75;;;;;21.66;36.42;102311.94;5013353;28;45587;-73
2021/12/12 10:38:35;;;;;;;;;2.75;2.75;;;;;21.66;36.45;102311.09;5011543;28;45438;-73
2021/12/12 10:41:16;;;;;;;;;2.00;2.00;;;;;21.67;36.06;102315.41;5014844;28;45489;-73
2021/12/12 10:43:50;;;;;;;;;4.00;2.25;;;;;21.68;36.17;102309.97;5012664;27;45700;-73
2021/12/12 10:46:38;;;;;;;;;2.00;2.00;;;;;21.68;36.34;102309.97;5012408;28;45334;-73
2021/12/12 10:49:17;;;;;;;;;1.25;1.25;;;;;21.69;36.03;102310.81;5012905;28;45337;-73
2021/12/12 10:51:57;;;;;;;;;3.00;3.00;;;;;21.70;36.20;102308.00;5012917;28;45339;-73
2021/12/12 10:54:32;;;;;;;;;2.25;2.00;;;;;21.58;36.19;102287.97;5011295;28;45393;-73
2021/12/12 10:57:02;;;;;;;;;2.00;2.00;;;;;21.70;36.18;102305.34;4996375;28;45427;-73
2021/12/12 10:59:35;;;;;;;;;2.00;2.00;;;;;21.71;36.33;102306.19;5014477;28;45256;-73
2021/12/12 11:02:11;;;;;;;;;2.00;2.00;;;;;21.72;36.42;102300.78;5014627;28;45518;-73
2021/12/12 11:04:47;;;;;;;;;1.50;1.50;;;;;21.72;36.25;102310.53;5012513;28;46493;-74
2021/12/12 11:07:22;;;;;;;;;2.00;1.00;;;;;21.72;36.45;102306.06;5012649;28;45425;-74
2021/12/12 11:10:11;;;;;;;;;2.50;2.00;;;;;21.72;36.23;102305.22;5012524;28;45389;-74
2021/12/12 11:12:51;;;;;;;;;2.00;2.00;;;;;21.71;36.85;102309.69;5012602;28;45814;-74
2021/12/12 11:15:29;;;;;;;;;1.75;1.75;;;;;21.72;36.22;102300.78;5012107;28;47283;-72
2021/12/12 11:17:59;;;;;;;;;2.75;2.75;;;;;21.72;36.26;102302.59;4996208;28;45485;-73
2021/12/12 11:20:35;;;;;;;;;2.00;2.00;;;;;21.72;36.50;102302.59;5014276;28;45500;-73
2021/12/12 11:23:15;;;;;;;;;2.00;2.00;;;;;21.66;36.52;102301.34;4998856;28;45264;-73
2021/12/12 11:26:01;;;;;;;;;2.50;1.75;;;;;21.68;36.63;102293.22;4999739;28;46093;-73
2021/12/12 11:28:33;;;;;;;;;2.00;2.00;;;;;21.48;35.96;102267.63;4999905;28;45465;-73
2021/12/12 11:31:11;;;;;;;;;3.00;3.00;;;;;21.70;36.09;102305.34;4999541;28;45529;-73
2021/12/12 11:33:40;;;;;;;;;1.75;1.75;;;;;21.70;36.41;102299.25;4999655;28;45525;-73
2021/12/12 11:36:12;;;;;;;;;2.75;2.75;;;;;21.70;36.35;102302.72;4996982;28;46286;-73
2021/12/12 11:38:50;;;;;;;;;2.00;2.00;;;;;21.72;36.17;102313.19;4996007;28;45547;-73
2021/12/12 11:41:34;;;;;;;;;2.00;2.00;;;;;21.70;36.32;102302.72;4999042;28;45264;-73
2021/12/12 11:44:21;;;;;;;;;2.00;2.00;;;;;21.71;36.38;102309.69;5009646;28;45332;-73
2021/12/12 11:46:49;;;;;;;;;1.00;1.00;;;;;21.71;36.77;102306.19;4994361;28;46197;-74
2021/12/12 11:49:43;;;;;;;;;1.50;1.00;;;;;21.71;36.38;102306.19;4999479;28;45379;-73
2021/12/12 11:52:19;;;;;;;;;2.00;2.00;;;;;21.61;36.60;102282.38;5006071;28;45531;-73
2021/12/12 11:54:59;;;;;;;;;4.50;2.00;;;;;21.69;36.09;102300.22;4999420;28;45500;-74
2021/12/12 11:57:34;;;;;;;;;0.00;0.00;;;;;21.70;36.36;102307.19;4999443;28;45269;-74
2021/12/12 12:00:14;;;;;;;;;1.00;1.00;;;;;21.69;36.62;102303.69;4996389;28;45351;-73
2021/12/12 12:03:08;;;;;;;;;2.00;1.00;;;;;21.68;36.48;102301.19;5010577;28;45611;-73
2021/12/12 12:05:42;;;;;;;;;2.00;2.00;;;;;21.67;36.67;102310.13;4994882;28;45289;-73
2021/12/12 12:08:26;;;;;;;;;4.00;1.50;;;;;21.68;36.46;102314.44;5000055;28;46209;-73